Time;durP1;ratioP1;P1;durP2;ratioP2;P2;SDS_P1;SDS_P2;PMS_P1;PMS_P2;Temp;Humidity;BMP_temperature;BMP_pressure;BME280_temperature;BME280_humidity;BME280_pressure;Samples;Min_cycle;Max_cycle;Signal;HPM_P1;HPM_P2
2023/06/24 00:02:01;;;;;;;9.37;6.90;;;;;;;16.50;99.63;101322.41;4930822;29;20569;-65
2023/06/24 00:04:28;;;;;;;9.40;6.57;;;;;;;16.49;99.70;101321.53;4930891;29;20202;-66
2023/06/24 00:06:56;;;;;;;7.97;6.30;;;;;;;16.44;100.00;101322.41;4930462;29;20669;-65
2023/06/24 00:09:22;;;;;;;7.00;5.80;;;;;;;16.39;100.00;101325.00;4931108;29;20605;-65
2023/06/24 00:11:49;;;;;;;12.40;6.33;;;;;;;16.35;100.00;101333.91;4931826;29;20198;-66
2023/06/24 00:14:16;;;;;;;8.67;6.47;;;;;;;16.38;100.00;101333.03;4930200;29;20286;-68
2023/06/24 00:16:42;;;;;;;9.97;6.70;;;;;;;16.33;100.00;101334.78;4931589;29;20195;-66
2023/06/24 00:19:09;;;;;;;9.73;6.80;;;;;;;16.26;100.00;101342.78;4930048;29;20782;-66
2023/06/24 00:21:37;;;;;;;8.87;6.53;;;;;;;16.18;100.00;101341.84;4925534;29;20234;-66
2023/06/24 00:24:04;;;;;;;11.33;6.87;;;;;;;16.09;100.00;101343.59;4931089;29;20210;-66
2023/06/24 00:26:31;;;;;;;12.80;6.47;;;;;;;16.01;100.00;101343.53;4928208;29;20733;-65
2023/06/24 00:28:59;;;;;;;8.93;6.43;;;;;;;15.92;100.00;101332.78;4928471;29;20714;-67
2023/06/24 00:31:25;;;;;;;8.73;6.43;;;;;;;15.88;100.00;101333.63;4930040;29;20275;-65
2023/06/24 00:33:52;;;;;;;9.90;6.63;;;;;;;15.81;100.00;101335.38;4930831;29;20645;-65
2023/06/24 00:36:20;;;;;;;13.80;7.10;;;;;;;15.85;100.00;101329.16;4930352;29;20205;-65
2023/06/24 00:38:48;;;;;;;9.70;6.77;;;;;;;15.91;100.00;101323.88;4929888;29;20258;-66
2023/06/24 00:41:18;;;;;;;8.17;6.90;;;;;;;15.90;100.00;101326.53;4928148;29;20556;-67
2023/06/24 00:43:45;;;;;;;9.00;7.23;;;;;;;15.84;100.00;101332.72;4927654;29;20203;-65
2023/06/24 00:46:13;;;;;;;11.17;7.40;;;;;;;15.76;100.00;101336.22;4930271;29;20222;-65
2023/06/24 00:48:40;;;;;;;9.77;7.43;;;;;;;15.73;100.00;101330.88;4928223;29;20199;-65
2023/06/24 00:51:06;;;;;;;10.37;7.80;;;;;;;15.81;100.00;101334.47;4930315;29;20321;-66
2023/06/24 00:53:33;;;;;;;8.27;7.27;;;;;;;15.84;100.00;101329.16;4931045;29;20225;-65
2023/06/24 00:56:02;;;;;;;11.30;8.13;;;;;;;15.92;100.00;101324.75;4930049;29;20199;-65
2023/06/24 00:58:31;;;;;;;9.93;8.17;;;;;;;16.01;100.00;101334.59;4929079;29;20224;-65
2023/06/24 01:00:58;;;;;;;12.33;8.50;;;;;;;16.01;100.00;101326.59;4930402;29;20309;-65
2023/06/24 01:03:25;;;;;;;11.60;7.70;;;;;;;15.97;100.00;101323.91;4930120;29;20195;-65
2023/06/24 01:05:54;;;;;;;14.27;8.30;;;;;;;15.93;100.00;101327.44;4927501;29;20301;-66
2023/06/24 01:08:22;;;;;;;10.00;7.77;;;;;;;15.97;100.00;101323.91;4929518;29;20213;-65
2023/06/24 01:10:52;;;;;;;9.87;7.23;;;;;;;15.94;100.00;101331.91;4928233;29;20278;-66
2023/06/24 01:13:18;;;;;;;10.03;7.23;;;;;;;15.85;100.00;101331.84;4928250;29;20230;-65
2023/06/24 01:15:46;;;;;;;10.50;7.97;;;;;;;15.76;100.00;101325.53;4933797;29;20484;-65
2023/06/24 01:18:50;;;;;;;10.63;7.30;;;;;;;15.54;100.00;101335.13;4926770;29;20214;-65
2023/06/24 01:21:27;;;;;;;10.63;7.53;;;;;;;15.36;100.00;101328.75;4886672;29;20212;-65
2023/06/24 01:24:11;;;;;;;10.67;7.93;;;;;;;15.44;100.00;101334.16;4927618;29;20199;-65
2023/06/24 01:27:05;;;;;;;12.10;7.90;;;;;;;15.51;100.00;101335.09;4931326;29;20223;-65
2023/06/24 01:29:46;;;;;;;10.67;7.67;;;;;;;15.59;100.00;101336.09;4932552;29;20230;-65
2023/06/24 01:32:38;;;;;;;9.33;7.17;;;;;;;15.51;100.00;101336.00;4932210;29;20285;-66
2023/06/24 01:35:11;;;;;;;10.17;7.17;;;;;;;15.46;100.00;101339.50;4933180;29;20286;-64
2023/06/24 01:37:50;;;;;;;10.93;7.67;;;;;;;15.51;100.00;101337.75;4926858;29;20195;-67
2023/06/24 01:40:34;;;;;;;9.23;6.90;;;;;;;15.37;100.00;101340.31;4922562;29;20226;-66
2023/06/24 01:43:04;;;;;;;9.87;7.43;;;;;;;15.24;100.00;101341.09;4932976;29;20589;-65
2023/06/24 01:45:41;;;;;;;8.17;6.77;;;;;;;15.10;100.00;101345.38;4934388;29;20231;-65
2023/06/24 01:48:16;;;;;;;8.20;7.00;;;;;;;14.99;100.00;101346.19;4922963;29;20202;-65
2023/06/24 01:50:50;;;;;;;9.97;7.43;;;;;;;14.99;100.00;101345.28;4931943;29;20222;-65
2023/06/24 01:53:18;;;;;;;11.17;7.47;;;;;;;15.03;100.00;101344.44;4925956;29;20202;-66
2023/06/24 01:55:46;;;;;;;9.63;7.43;;;;;;;15.07;100.00;101346.25;4931597;29;20667;-64
2023/06/24 01:58:15;;;;;;;9.00;7.10;;;;;;;15.04;100.00;101348.88;4924454;29;20566;-66
2023/06/24 02:00:42;;;;;;;8.97;7.30;;;;;;;15.16;100.00;101354.34;4932945;29;20305;-65
2023/06/24 02:03:09;;;;;;;8.23;6.67;;;;;;;15.13;100.00;101348.97;4932211;29;20207;-65
2023/06/24 02:05:39;;;;;;;8.97;7.27;;;;;;;15.12;100.00;101348.97;4931876;29;20225;-65
2023/06/24 02:08:11;;;;;;;9.43;6.50;;;;;;;15.21;100.00;101346.38;4933478;29;20286;-67
2023/06/24 02:10:39;;;;;;;9.27;6.50;;;;;;;15.13;100.00;101342.75;4961176;23;20221;-68
2023/06/24 02:13:07;;;;;;;7.73;6.53;;;;;;;15.04;100.00;101343.56;4945167;28;20523;-68
2023/06/24 02:15:37;;;;;;;9.70;6.27;;;;;;;15.00;100.00;101345.28;4938104;29;20237;-68
2023/06/24 02:18:04;;;;;;;8.60;6.70;;;;;;;14.94;100.00;101342.56;4940109;29;20206;-68
2023/06/24 02:20:31;;;;;;;10.23;7.17;;;;;;;14.92;100.00;101344.31;4946361;28;20310;-68
2023/06/24 02:22:59;;;;;;;9.23;6.83;;;;;;;14.93;100.00;101347.88;4941329;29;20213;-69
2023/06/24 02:25:26;;;;;;;9.37;6.77;;;;;;;14.90;100.00;101342.53;4931419;29;20199;-69
2023/06/24 02:27:54;;;;;;;8.57;6.13;;;;;;;14.79;100.00;101330.81;4949156;29;20571;-68
2023/06/24 02:30:22;;;;;;;8.43;6.00;;;;;;;14.69;100.00;101345.81;4945369;28;20228;-68
2023/06/24 02:32:48;;;;;;;8.70;6.43;;;;;;;14.64;100.00;101352.88;4943082;29;20198;-67
2023/06/24 02:35:15;;;;;;;8.27;6.60;;;;;;;14.59;100.00;101349.25;4941552;29;20198;-68
2023/06/24 02:37:41;;;;;;;8.73;6.50;;;;;;;14.78;100.00;101339.69;4948342;29;20225;-68
2023/06/24 02:40:09;;;;;;;7.70;6.27;;;;;;;14.65;100.00;101342.22;4938078;28;20223;-69
2023/06/24 02:42:36;;;;;;;9.70;6.60;;;;;;;14.60;100.00;101345.72;4938587;29;20621;-68
2023/06/24 02:45:05;;;;;;;8.27;6.40;;;;;;;14.62;100.00;101338.63;4951419;29;20590;-68
2023/06/24 02:47:33;;;;;;;11.23;6.90;;;;;;;14.52;100.00;101342.06;4951450;29;20218;-68
2023/06/24 02:50:03;;;;;;;8.43;6.37;;;;;;;14.50;100.00;101339.38;4932510;29;20231;-68
2023/06/24 02:52:29;;;;;;;8.60;6.57;;;;;;;14.44;100.00;101336.66;4945321;29;20227;-68
2023/06/24 02:54:59;;;;;;;8.57;6.37;;;;;;;14.37;100.00;101345.38;4948033;29;20214;-69
2023/06/24 02:57:26;;;;;;;9.80;6.80;;;;;;;14.30;100.00;101340.84;4946523;29;20632;-68
2023/06/24 02:59:52;;;;;;;8.60;6.90;;;;;;;14.24;100.00;101346.09;4936004;29;20318;-68
2023/06/24 03:02:20;;;;;;;9.20;6.87;;;;;;;14.16;100.00;101350.44;4944176;29;20195;-68
2023/06/24 03:04:48;;;;;;;9.37;7.17;;;;;;;14.11;100.00;101350.38;4948167;29;20229;-68
2023/06/24 03:07:16;;;;;;;10.23;7.13;;;;;;;14.06;100.00;101349.41;4950416;29;20732;-68
2023/06/24 03:09:42;;;;;;;8.37;6.77;;;;;;;14.01;100.00;101354.66;4932967;29;20703;-68
2023/06/24 03:12:09;;;;;;;9.40;7.27;;;;;;;14.00;100.00;101352.84;4950810;29;20198;-68
2023/06/24 03:14:35;;;;;;;9.20;7.27;;;;;;;13.98;100.00;101356.38;4940118;29;20211;-68
2023/06/24 03:17:02;;;;;;;10.43;7.53;;;;;;;14.00;100.00;101354.63;4950637;29;20714;-68
2023/06/24 03:19:28;;;;;;;9.27;7.20;;;;;;;14.15;100.00;101345.97;4949358;28;20202;-67
2023/06/24 03:21:55;;;;;;;10.73;7.63;;;;;;;14.36;100.00;101351.56;4950258;29;20205;-68
2023/06/24 03:24:21;;;;;;;12.60;7.50;;;;;;;14.63;100.00;101346.66;4949140;29;20213;-70
2023/06/24 03:26:48;;;;;;;8.90;6.90;;;;;;;14.70;100.00;101351.16;4949938;29;20218;-67
2023/06/24 03:29:14;;;;;;;10.63;7.67;;;;;;;14.63;100.00;101357.31;4947589;28;20198;-68
2023/06/24 03:31:43;;;;;;;10.53;7.40;;;;;;;14.60;100.00;101364.38;4946794;29;20689;-67
2023/06/24 03:34:10;;;;;;;11.63;7.30;;;;;;;14.54;100.00;101359.88;4950929;29;20198;-68
2023/06/24 03:36:38;;;;;;;10.93;7.60;;;;;;;14.57;100.00;101359.00;4950323;28;20281;-66
2023/06/24 03:39:05;;;;;;;10.10;7.53;;;;;;;14.66;100.00;101360.00;4947870;29;20195;-65
2023/06/24 03:41:31;;;;;;;9.70;7.93;;;;;;;14.82;100.00;101353.09;4941654;29;20964;-66
2023/06/24 03:43:57;;;;;;;10.47;7.97;;;;;;;14.80;100.00;101362.84;4942624;29;20225;-67
2023/06/24 03:46:25;;;;;;;9.43;7.40;;;;;;;14.78;100.00;101356.59;4942251;29;20214;-66
2023/06/24 03:48:52;;;;;;;10.03;7.07;;;;;;;14.77;100.00;101359.25;4946724;29;20214;-66
2023/06/24 03:51:18;;;;;;;12.33;7.10;;;;;;;14.70;100.00;101360.94;4931969;29;20229;-67
2023/06/24 03:53:44;;;;;;;8.33;7.07;;;;;;;14.66;100.00;101362.69;4949163;29;20276;-66
2023/06/24 03:56:11;;;;;;;9.53;7.10;;;;;;;14.69;100.00;101360.03;4949129;29;20945;-67
2023/06/24 03:58:37;;;;;;;8.17;6.67;;;;;;;14.89;100.00;101375.41;4947411;28;20285;-65
2023/06/24 04:01:03;;;;;;;9.57;7.30;;;;;;;15.05;100.00;101372.03;4936260;29;20226;-68
2023/06/24 04:03:31;;;;;;;9.60;7.43;;;;;;;15.15;100.00;101381.00;4941783;29;20203;-68
2023/06/24 04:05:58;;;;;;;8.93;7.10;;;;;;;15.17;100.00;101373.91;4944515;29;20222;-66
2023/06/24 04:08:30;;;;;;;10.20;7.27;;;;;;;15.16;100.00;101372.13;4949239;29;20199;-67
2023/06/24 04:10:59;;;;;;;12.37;7.20;;;;;;;15.15;100.00;101386.34;4949341;28;20509;-68
2023/06/24 04:13:26;;;;;;;11.67;7.30;;;;;;;15.25;100.00;101381.16;4948674;29;20210;-66
2023/06/24 04:15:52;;;;;;;11.63;8.10;;;;;;;15.45;100.00;101385.78;4948261;29;20229;-66
2023/06/24 04:18:19;;;;;;;9.00;6.93;;;;;;;15.52;100.00;101382.28;4948518;29;20203;-67
2023/06/24 04:20:46;;;;;;;11.20;7.50;;;;;;;15.62;100.00;101377.09;4949910;28;20272;-67
2023/06/24 04:23:14;;;;;;;9.73;6.87;;;;;;;15.73;100.00;101381.63;4948424;29;20213;-66
2023/06/24 04:25:41;;;;;;;9.70;7.30;;;;;;;15.77;100.00;101372.75;4949920;29;20208;-67
2023/06/24 04:28:07;;;;;;;10.43;7.70;;;;;;;15.76;100.00;101374.53;4947977;29;20285;-67
2023/06/24 04:30:43;;;;;;;10.27;7.57;;;;;;;15.85;100.00;101382.59;4937680;29;20794;-66
2023/06/24 04:33:09;;;;;;;9.97;7.47;;;;;;;15.93;100.00;101379.97;4946807;29;20607;-67
2023/06/24 04:35:36;;;;;;;8.77;7.23;;;;;;;15.97;100.00;101381.78;4937092;29;20241;-66
2023/06/24 04:38:03;;;;;;;11.57;8.13;;;;;;;16.09;100.00;101383.66;4946841;29;20285;-68
2023/06/24 04:40:30;;;;;;;11.00;7.70;;;;;;;16.17;100.00;101377.47;4951539;28;20222;-66
2023/06/24 04:42:57;;;;;;;9.37;8.07;;;;;;;16.33;100.00;101382.91;4948350;29;20206;-67
2023/06/24 04:45:23;;;;;;;8.33;7.37;;;;;;;16.49;100.00;101392.81;4948969;29;20202;-66
2023/06/24 04:47:51;;;;;;;12.93;7.87;;;;;;;16.58;100.00;101390.19;4948747;29;20233;-67
2023/06/24 04:50:17;;;;;;;9.70;7.70;;;;;;;16.68;100.00;101376.00;4949380;28;20222;-66
2023/06/24 04:52:44;;;;;;;11.40;7.80;;;;;;;16.81;100.00;101391.25;4942451;28;20293;-67
2023/06/24 04:55:11;;;;;;;9.17;7.47;;;;;;;16.94;100.00;101391.28;4943063;29;20206;-65
2023/06/24 04:57:37;;;;;;;11.00;8.10;;;;;;;17.03;100.00;101391.28;4943905;29;20201;-66
2023/06/24 05:00:04;;;;;;;10.77;8.13;;;;;;;17.11;100.00;101390.41;4934821;29;20284;-66
2023/06/24 05:02:31;;;;;;;10.20;7.83;;;;;;;17.20;100.00;101392.22;4940994;29;20213;-66
2023/06/24 05:04:58;;;;;;;8.60;7.27;;;;;;;17.17;100.00;101403.81;4947853;29;20202;-66
2023/06/24 05:07:24;;;;;;;8.50;7.07;;;;;;;17.25;100.00;101403.88;4948450;29;20229;-66
2023/06/24 05:09:51;;;;;;;10.03;7.03;;;;;;;17.32;100.00;101407.44;4948846;28;20705;-66
2023/06/24 05:12:18;;;;;;;12.53;7.37;;;;;;;17.40;100.00;101411.03;4942086;29;20202;-64
2023/06/24 05:14:49;;;;;;;13.53;10.37;;;;;;;17.36;100.00;101414.59;4942204;29;20673;-66
2023/06/24 05:17:16;;;;;;;12.53;8.87;;;;;;;17.34;100.00;101408.34;4944270;29;20277;-66
2023/06/24 05:19:42;;;;;;;11.87;9.03;;;;;;;17.42;100.00;101412.81;4945558;28;20222;-66
2023/06/24 05:22:09;;;;;;;14.20;8.40;;;;;;;17.45;100.00;101417.28;4948903;29;20811;-64
2023/06/24 05:24:35;;;;;;;10.33;8.47;;;;;;;17.54;100.00;101411.91;4940309;28;20639;-66
2023/06/24 05:27:06;;;;;;;11.30;8.37;;;;;;;17.71;100.00;101401.28;4938408;29;20222;-67
2023/06/24 05:29:35;;;;;;;9.90;7.97;;;;;;;17.71;100.00;101383.41;4947094;28;20226;-66
2023/06/24 05:32:03;;;;;;;8.97;7.23;;;;;;;18.08;100.00;101405.72;4947725;29;20208;-68
2023/06/24 05:34:30;;;;;;;9.50;7.80;;;;;;;18.73;100.00;101409.16;4948820;29;20271;-66
2023/06/24 05:36:57;;;;;;;9.23;7.73;;;;;;;18.82;98.77;101409.16;4949351;29;20658;-66
2023/06/24 05:39:24;;;;;;;8.87;7.53;;;;;;;18.75;99.12;101423.47;4949619;28;20518;-66
2023/06/24 05:41:50;;;;;;;10.67;7.40;;;;;;;18.84;99.08;101414.53;4946119;29;20194;-66
2023/06/24 05:44:18;;;;;;;8.47;7.50;;;;;;;18.81;98.77;101420.75;4948569;29;20213;-67
2023/06/24 05:46:45;;;;;;;12.67;7.83;;;;;;;18.68;99.67;101422.59;4949419;29;20221;-66
2023/06/24 05:49:11;;;;;;;11.10;7.93;;;;;;;18.85;99.40;101422.56;4949540;28;20471;-66
2023/06/24 05:51:38;;;;;;;9.93;7.63;;;;;;;18.93;98.35;101418.06;4942346;29;20228;-68
2023/06/24 05:54:04;;;;;;;10.40;7.80;;;;;;;18.94;99.08;101425.22;4948915;29;20244;-67
2023/06/24 05:56:32;;;;;;;15.63;7.60;;;;;;;19.05;98.87;101409.94;4949512;29;20617;-66
2023/06/24 05:58:58;;;;;;;9.53;7.13;;;;;;;19.81;95.82;101413.94;4949992;29;20194;-67
2023/06/24 06:01:25;;;;;;;9.87;7.10;;;;;;;19.95;94.16;101411.13;4933102;29;20321;-66
2023/06/24 06:03:51;;;;;;;10.00;7.53;;;;;;;19.89;94.17;101405.81;4947826;29;20399;-66
2023/06/24 06:06:18;;;;;;;9.43;7.10;;;;;;;19.62;95.38;101410.53;4952320;29;20624;-66
2023/06/24 06:08:44;;;;;;;10.00;8.23;;;;;;;19.60;95.69;101408.72;4933964;29;20198;-68
2023/06/24 06:11:10;;;;;;;9.07;7.63;;;;;;;19.66;95.45;101414.06;4950173;29;20238;-67
2023/06/24 06:13:37;;;;;;;11.05;8.60;;;;;;;19.65;96.86;101420.34;4951587;29;20675;-66
2023/06/24 06:16:04;;;;;;;9.20;7.60;;;;;;;19.69;97.20;101423.00;4952090;29;20293;-66
2023/06/24 06:18:30;;;;;;;13.85;8.23;;;;;;;19.75;96.80;101413.09;4950743;28;20190;-66
2023/06/24 06:20:56;;;;;;;9.85;7.68;;;;;;;19.82;95.96;101413.03;4949504;28;20214;-65
2023/06/24 06:23:23;;;;;;;7.97;7.13;;;;;;;19.97;95.66;101412.00;4951476;29;20301;-66
2023/06/24 06:25:49;;;;;;;12.55;7.45;;;;;;;19.99;94.54;101411.09;4946906;29;20206;-66
2023/06/24 06:28:16;;;;;;;9.90;7.17;;;;;;;20.20;92.15;101414.50;4951671;29;20716;-67
2023/06/24 06:30:43;;;;;;;10.25;7.85;;;;;;;20.19;90.35;101418.09;4940903;28;20226;-65
2023/06/24 06:33:09;;;;;;;9.48;7.28;;;;;;;20.26;90.06;101418.00;4951463;29;20213;-66
2023/06/24 06:35:36;;;;;;;9.43;7.55;;;;;;;20.38;88.86;101419.69;4949598;28;20663;-67
2023/06/24 06:38:04;;;;;;;10.82;7.50;;;;;;;20.44;86.94;101416.97;4948732;29;20237;-66
2023/06/24 06:40:31;;;;;;;12.75;8.35;;;;;;;20.45;85.82;101418.78;4952848;28;20234;-66
2023/06/24 06:42:57;;;;;;;10.50;8.70;;;;;;;20.51;85.16;101418.69;4950451;29;20202;-64
2023/06/24 06:45:23;;;;;;;11.48;8.80;;;;;;;20.45;86.18;101415.19;4949339;29;20306;-68
2023/06/24 06:47:50;;;;;;;14.05;10.43;;;;;;;20.47;85.92;101418.75;4952687;29;20221;-67
2023/06/24 06:50:17;;;;;;;13.55;9.23;;;;;;;20.62;85.97;101413.19;4952239;28;20230;-67
2023/06/24 06:52:43;;;;;;;14.75;8.93;;;;;;;20.80;86.02;101420.13;4951011;29;20206;-66
2023/06/24 06:55:09;;;;;;;12.80;9.27;;;;;;;20.84;85.47;101413.84;4942588;29;20756;-66
2023/06/24 06:57:36;;;;;;;11.25;9.40;;;;;;;20.84;84.96;101414.72;4928638;29;20207;-67
2023/06/24 07:00:03;;;;;;;11.07;9.02;;;;;;;21.04;83.69;101417.16;4950198;28;20609;-68
2023/06/24 07:02:29;;;;;;;12.48;9.00;;;;;;;21.34;84.00;101420.38;4948806;29;20199;-66
2023/06/24 07:04:56;;;;;;;10.45;8.70;;;;;;;21.59;82.87;101421.78;4951813;29;20592;-67
2023/06/24 07:07:22;;;;;;;13.25;10.07;;;;;;;21.85;80.34;101418.66;4951220;29;20587;-66
2023/06/24 07:09:49;;;;;;;14.95;9.10;;;;;;;22.36;78.55;101422.28;4950993;28;20234;-67
2023/06/24 07:12:15;;;;;;;14.20;9.60;;;;;;;24.75;68.19;101413.09;4946299;28;20290;-65
2023/06/24 07:14:42;;;;;;;12.65;9.68;;;;;;;27.25;56.99;101412.81;4951171;29;20287;-64
2023/06/24 07:17:08;;;;;;;11.55;9.50;;;;;;;29.05;48.87;101415.09;4941505;29;20714;-65
2023/06/24 07:19:34;;;;;;;11.63;8.98;;;;;;;30.14;44.44;101408.84;4950863;28;20230;-65
2023/06/24 07:22:01;;;;;;;12.93;8.35;;;;;;;30.40;42.99;101416.53;4949426;29;20210;-65
2023/06/24 07:24:27;;;;;;;11.00;8.75;;;;;;;31.00;41.86;101413.38;4951379;29;20253;-67
2023/06/24 07:26:54;;;;;;;14.98;9.48;;;;;;;30.96;40.79;101411.78;4951827;29;20249;-66
2023/06/24 07:29:20;;;;;;;12.35;9.80;;;;;;;31.45;39.69;101416.28;4948764;28;20277;-68
2023/06/24 07:31:46;;;;;;;9.93;8.23;;;;;;;32.01;38.15;101417.56;4946636;29;20662;-68
2023/06/24 07:34:13;;;;;;;15.48;9.20;;;;;;;31.47;39.20;101413.44;4949312;29;20198;-65
2023/06/24 07:36:39;;;;;;;17.00;9.38;;;;;;;31.69;38.13;101413.09;4949881;28;20233;-68
2023/06/24 07:39:06;;;;;;;11.30;8.43;;;;;;;31.71;38.00;101405.72;4947539;29;20198;-68
2023/06/24 07:41:33;;;;;;;11.82;7.93;;;;;;;31.47;38.20;101397.91;4948830;29;20221;-68
2023/06/24 07:43:59;;;;;;;10.82;7.43;;;;;;;31.64;37.56;101404.28;4949219;29;20281;-66
2023/06/24 07:46:27;;;;;;;7.95;6.50;;;;;;;31.04;37.42;101414.97;4949281;29;20205;-65
2023/06/24 07:48:54;;;;;;;7.35;6.00;;;;;;;31.41;35.91;101414.69;4948918;28;20326;-65
2023/06/24 07:51:20;;;;;;;9.23;6.05;;;;;;;30.82;37.03;101423.44;4947272;28;20738;-65
2023/06/24 07:53:47;;;;;;;7.45;5.88;;;;;;;31.58;35.58;101413.69;4947240;29;20289;-65
2023/06/24 07:56:13;;;;;;;8.93;6.03;;;;;;;31.28;36.64;101410.00;4948650;29;20652;-64
2023/06/24 07:58:40;;;;;;;10.02;6.07;;;;;;;31.78;35.34;101401.63;4947577;29;20221;-67
2023/06/24 08:01:06;;;;;;;6.70;5.65;;;;;;;32.28;34.71;101404.09;4947372;28;20291;-65
2023/06/24 08:03:33;;;;;;;6.53;5.07;;;;;;;32.60;34.06;101415.84;4948815;29;20257;-65
2023/06/24 08:06:00;;;;;;;6.32;5.07;;;;;;;32.35;34.75;101416.44;4946599;29;20203;-66
2023/06/24 08:08:27;;;;;;;8.38;5.55;;;;;;;32.76;33.79;101413.00;4948020;29;20226;-67
2023/06/24 08:10:53;;;;;;;6.97;5.53;;;;;;;32.43;33.98;101404.16;4988974;23;20236;-67
2023/06/24 08:13:19;;;;;;;8.85;5.53;;;;;;;32.24;34.06;101407.09;4977936;28;20228;-66
2023/06/24 08:15:46;;;;;;;7.57;5.28;;;;;;;31.23;35.48;101412.13;4980567;28;20198;-66
2023/06/24 08:18:12;;;;;;;8.80;5.45;;;;;;;30.85;36.09;101405.03;4984982;28;20292;-68
2023/06/24 08:20:39;;;;;;;9.68;5.93;;;;;;;30.31;37.91;101406.09;4980153;28;20601;-67
2023/06/24 08:23:05;;;;;;;8.18;6.50;;;;;;;30.00;38.60;101405.88;4985353;28;20197;-65
2023/06/24 08:25:32;;;;;;;7.40;5.90;;;;;;;30.34;38.71;101397.75;4985046;28;20204;-67
2023/06/24 08:28:17;;;;;;;6.97;5.30;;;;;;;30.70;38.13;101403.13;4984467;28;20633;-66
2023/06/24 08:31:24;;;;;;;8.77;5.97;;;;;;;29.40;41.14;101408.84;4983919;28;20225;-68
2023/06/24 08:33:54;;;;;;;7.38;6.07;;;;;;;29.77;40.19;101396.16;4985077;28;20211;-69
2023/06/24 08:36:27;;;;;;;7.18;5.38;;;;;;;29.61;40.34;101388.69;4985903;28;20212;-69
2023/06/24 08:38:53;;;;;;;9.27;6.10;;;;;;;29.60;40.72;101386.06;4986587;28;20197;-69
2023/06/24 08:41:20;;;;;;;7.80;6.45;;;;;;;28.75;41.63;101401.91;4982951;28;20312;-67
2023/06/24 08:43:46;;;;;;;9.27;6.38;;;;;;;28.86;41.76;101398.72;4978412;28;20292;-67
2023/06/24 08:46:17;;;;;;;8.13;6.45;;;;;;;28.58;40.34;101393.63;4986335;28;20579;-67
2023/06/24 08:48:47;;;;;;;7.43;5.55;;;;;;;28.42;41.37;101397.97;4987828;28;20704;-68
2023/06/24 08:51:20;;;;;;;6.80;5.20;;;;;;;28.52;41.69;101391.19;4981417;28;20309;-69
2023/06/24 08:53:47;;;;;;;6.82;5.88;;;;;;;28.59;41.48;101395.38;4987323;28;20200;-67
2023/06/24 08:56:15;;;;;;;7.05;5.05;;;;;;;28.63;42.58;101400.63;4987811;28;20220;-67
2023/06/24 08:58:41;;;;;;;7.93;5.35;;;;;;;28.40;43.28;101390.75;4988884;28;20197;-67
2023/06/24 09:01:08;;;;;;;6.55;5.85;;;;;;;28.50;42.24;101395.81;4987843;28;20220;-67
2023/06/24 09:03:35;;;;;;;7.55;6.18;;;;;;;28.43;41.67;101387.03;4985377;28;20201;-67
2023/06/24 09:06:02;;;;;;;7.40;5.30;;;;;;;28.54;42.46;101403.78;4986756;28;20203;-68
2023/06/24 09:08:28;;;;;;;7.68;5.70;;;;;;;28.44;41.18;101396.09;4988310;28;20244;-67
2023/06/24 09:10:55;;;;;;;6.75;5.63;;;;;;;28.18;41.59;101394.47;4988662;28;20860;-68
2023/06/24 09:13:27;;;;;;;9.82;5.10;;;;;;;28.40;41.55;101393.47;4986281;28;20204;-67
2023/06/24 09:15:57;;;;;;;8.85;5.43;;;;;;;28.55;40.50;101385.59;4985545;28;20200;-67
2023/06/24 09:18:31;;;;;;;6.38;5.35;;;;;;;28.45;37.86;101382.41;4982712;28;20276;-66
2023/06/24 09:20:57;;;;;;;7.20;5.63;;;;;;;28.45;38.95;101373.34;4984333;28;20309;-65
2023/06/24 09:23:26;;;;;;;7.65;5.88;;;;;;;28.67;39.60;101363.19;4986408;28;20208;-66
2023/06/24 09:25:58;;;;;;;7.47;4.25;;;;;;;28.85;36.78;101361.50;4984335;28;20208;-66
2023/06/24 09:28:27;;;;;;;9.13;5.63;;;;;;;29.21;37.18;101364.28;4986377;28;20221;-68
2023/06/24 09:31:09;;;;;;;8.15;6.57;;;;;;;28.82;37.09;101358.88;4984268;28;20224;-67
2023/06/24 09:33:47;;;;;;;7.80;6.18;;;;;;;28.92;37.47;101357.53;4984222;28;20693;-67
2023/06/24 09:36:14;;;;;;;7.85;5.47;;;;;;;28.95;37.78;101355.53;4987216;28;20212;-67
2023/06/24 09:38:44;;;;;;;7.30;5.85;;;;;;;29.14;38.16;101354.63;4987267;28;20193;-67
2023/06/24 09:41:12;;;;;;;7.38;5.50;;;;;;;29.25;37.00;101347.72;4988565;28;20295;-67
2023/06/24 09:43:43;;;;;;;22.75;7.32;;;;;;;29.45;37.20;101343.16;4988768;28;20284;-67
2023/06/24 09:46:11;;;;;;;11.40;5.70;;;;;;;29.58;35.97;101334.25;4988759;28;20295;-67
2023/06/24 09:48:37;;;;;;;7.05;5.50;;;;;;;29.07;36.18;101340.41;4990618;28;20216;-68
2023/06/24 09:51:04;;;;;;;9.10;5.28;;;;;;;28.89;36.18;101342.19;4990547;28;20216;-66
2023/06/24 09:53:33;;;;;;;6.63;4.90;;;;;;;28.75;35.96;101332.84;4989725;28;20199;-67
2023/06/24 09:56:01;;;;;;;7.85;5.60;;;;;;;28.53;36.64;101330.25;4971383;28;20205;-69
2023/06/24 09:58:35;;;;;;;6.10;4.63;;;;;;;28.76;36.95;101315.53;4987670;28;21033;-68
2023/06/24 10:01:05;;;;;;;6.68;4.65;;;;;;;28.97;36.93;101323.63;4989425;28;20254;-67
2023/06/24 10:03:35;;;;;;;8.45;6.00;;;;;;;28.70;36.73;101320.31;4988578;28;20575;-68
2023/06/24 10:06:03;;;;;;;6.28;4.90;;;;;;;29.04;36.95;101321.47;4989520;28;20201;-68
2023/06/24 10:08:30;;;;;;;7.68;5.00;;;;;;;29.29;34.97;101315.72;4990099;28;20766;-67
2023/06/24 10:10:58;;;;;;;5.00;4.10;;;;;;;29.42;35.26;101313.25;4988687;28;20228;-67
2023/06/24 10:13:25;;;;;;;7.00;5.38;;;;;;;29.51;35.40;101305.50;4985239;28;20229;-67
2023/06/24 10:15:52;;;;;;;6.03;4.95;;;;;;;29.55;36.60;101303.50;4988613;28;21808;-68
2023/06/24 10:18:39;;;;;;;5.82;5.05;;;;;;;29.65;36.72;101304.81;4989076;28;20577;-67
2023/06/24 10:21:07;;;;;;;9.20;5.30;;;;;;;29.90;35.13;101296.22;4987933;28;20221;-69
2023/06/24 10:23:53;;;;;;;5.30;4.60;;;;;;;30.06;33.17;101307.28;4988360;28;20625;-68
2023/06/24 10:26:29;;;;;;;5.57;4.40;;;;;;;29.69;32.20;101292.78;4987240;28;20204;-69
2023/06/24 10:29:05;;;;;;;4.57;3.95;;;;;;;29.74;32.25;101292.53;4988159;28;20313;-67
2023/06/24 10:31:55;;;;;;;9.05;4.80;;;;;;;29.93;32.86;101302.41;4978523;28;20716;-68
2023/06/24 10:34:33;;;;;;;6.82;4.47;;;;;;;29.41;33.01;101290.53;4980912;28;20217;-67
2023/06/24 10:37:23;;;;;;;5.57;4.43;;;;;;;29.35;35.19;101290.84;4990299;28;20197;-67
2023/06/24 10:39:57;;;;;;;7.05;4.78;;;;;;;29.47;33.91;101286.63;4985314;28;20201;-68
2023/06/24 10:42:26;;;;;;;5.53;3.63;;;;;;;29.60;33.36;101285.91;4989565;28;20193;-67
2023/06/24 10:44:54;;;;;;;3.85;2.88;;;;;;;29.92;29.82;101283.34;4989285;28;20605;-67
2023/06/24 10:47:25;;;;;;;3.83;3.22;;;;;;;30.17;31.02;101272.94;4984886;28;20327;-67
2023/06/24 10:49:52;;;;;;;3.97;3.25;;;;;;;30.46;31.28;101267.72;4978611;28;20271;-67
2023/06/24 10:52:21;;;;;;;5.25;3.95;;;;;;;30.83;30.80;101270.19;4988685;28;20205;-67
2023/06/24 10:54:48;;;;;;;4.82;3.83;;;;;;;30.96;29.75;101270.38;4989751;28;20653;-68
2023/06/24 10:57:20;;;;;;;5.13;3.50;;;;;;;31.02;29.58;101264.53;4988913;28;20228;-67
2023/06/24 10:59:47;;;;;;;4.15;3.63;;;;;;;31.04;30.03;101259.84;4987713;28;20217;-67
2023/06/24 11:02:15;;;;;;;4.65;3.30;;;;;;;31.15;29.86;101260.13;4989357;28;20197;-68
2023/06/24 11:04:47;;;;;;;6.45;3.95;;;;;;;30.44;29.62;101261.47;4988652;28;20228;-67
2023/06/24 11:07:14;;;;;;;5.32;3.55;;;;;;;30.55;31.39;101254.41;4986642;28;20201;-67
2023/06/24 11:09:42;;;;;;;4.57;3.50;;;;;;;30.71;30.15;101249.00;4992137;28;20271;-67
2023/06/24 11:12:11;;;;;;;6.20;4.18;;;;;;;30.77;30.77;101245.91;4989207;28;20215;-67
2023/06/24 11:14:39;;;;;;;5.18;4.60;;;;;;;30.74;29.54;101250.66;4989910;28;20208;-67
2023/06/24 11:17:06;;;;;;;6.10;4.40;;;;;;;30.76;30.67;101243.25;4984680;28;20201;-66
2023/06/24 11:19:33;;;;;;;5.65;4.70;;;;;;;30.76;29.90;101241.41;4985040;28;20284;-65
2023/06/24 11:22:02;;;;;;;4.03;3.63;;;;;;;30.79;29.71;101243.97;4988698;28;20208;-66
2023/06/24 11:24:29;;;;;;;4.85;3.80;;;;;;;30.77;29.55;101234.97;4987506;28;20208;-65
2023/06/24 11:26:56;;;;;;;4.75;3.63;;;;;;;30.99;29.72;101233.72;4988321;28;20200;-65